Terminal Aerodrome Forecast
Issued by NWS

Home | Current Version | Previous Version | Text Only | Print | Product List | Glossary On
Versions: 1 2 3 4 5 6 7 8 9 10 11 12 13 14 15
000
FTUS46 KMFR 191752
TAFLMT
TAF
KLMT 191752Z 1918/2018 16015KT P6SM BKN200
     FM191900 19020G30KT P6SM BKN150
     FM192100 20023G35KT P6SM -SHRA SCT060 OVC100
     FM200300 20020G30KT 6SM -RA BR OVC030
     FM200500 24015G22KT 5SM -RA BR BKN010 OVC020
     FM200700 26011KT P6SM -RA SCT020 OVC035=

USA.gov is the U.S. government's official web portal to all federal, state and local government web resources and services.